Time;durP1;ratioP1;P1;durP2;ratioP2;P2;SDS_P1;SDS_P2;PMS_P1;PMS_P2;Temp;Humidity;BMP_temperature;BMP_pressure;BME280_temperature;BME280_humidity;BME280_pressure;Samples;Min_cycle;Max_cycle;Signal;HPM_P1;HPM_P2
2022/11/09 00:01:26;;;;;;;78.13;36.05;;;;;;;11.61;79.24;100559.22;5032838;28;20052;-69
2022/11/09 00:03:59;;;;;;;82.50;37.35;;;;;;;11.67;79.87;100563.91;5032481;28;20056;-69
2022/11/09 00:06:25;;;;;;;79.72;36.50;;;;;;;11.67;78.16;100556.81;5015675;28;20084;-69
2022/11/09 00:08:51;;;;;;;74.80;35.25;;;;;;;11.56;77.49;100559.66;5031516;28;20230;-68
2022/11/09 00:11:17;;;;;;;78.38;36.25;;;;;;;11.57;78.97;100563.97;5031773;28;20088;-68
2022/11/09 00:13:43;;;;;;;68.97;36.25;;;;;;;11.44;80.47;100552.84;5031537;28;20227;-69
2022/11/09 00:16:12;;;;;;;89.13;39.28;;;;;;;11.51;82.24;100557.44;5032483;28;20037;-69
2022/11/09 00:18:38;;;;;;;82.45;39.30;;;;;;;11.49;83.59;100556.78;5035540;28;20037;-69
2022/11/09 00:21:09;;;;;;;85.30;40.10;;;;;;;11.52;82.13;100558.28;5031153;28;20025;-69
2022/11/09 00:23:35;;;;;;;86.38;40.10;;;;;;;11.55;82.91;100555.34;5018344;28;20212;-69
2022/11/09 00:26:02;;;;;;;73.93;36.25;;;;;;;11.57;82.43;100561.31;5035557;28;20037;-69
2022/11/09 00:28:27;;;;;;;66.05;33.60;;;;;;;11.52;84.19;100553.81;5030917;28;20100;-69
2022/11/09 00:31:00;;;;;;;73.60;36.08;;;;;;;11.48;84.23;100556.91;5034042;28;20032;-68
2022/11/09 00:33:25;;;;;;;76.97;35.90;;;;;;;11.47;80.50;100556.06;5035161;28;20037;-68
2022/11/09 00:35:51;;;;;;;79.03;36.05;;;;;;;11.31;83.97;100557.66;5021394;28;20051;-69
2022/11/09 00:38:16;;;;;;;77.43;35.35;;;;;;;11.20;81.48;100556.03;5034425;28;20104;-69
2022/11/09 00:40:42;;;;;;;76.20;35.38;;;;;;;11.08;84.13;100549.25;5036526;28;20041;-69
2022/11/09 00:43:07;;;;;;;76.30;37.20;;;;;;;11.07;84.90;100543.13;5037795;28;20327;-69
2022/11/09 00:45:32;;;;;;;81.90;36.28;;;;;;;11.17;84.50;100551.03;5017347;28;20189;-69
2022/11/09 00:47:58;;;;;;;85.13;37.67;;;;;;;11.13;82.79;100553.16;5038755;28;20028;-69
2022/11/09 00:50:23;;;;;;;87.97;38.65;;;;;;;11.04;84.87;100556.66;5038738;28;20097;-68
2022/11/09 00:52:49;;;;;;;79.38;34.88;;;;;;;10.99;82.52;100545.66;5035033;28;20037;-68
2022/11/09 00:55:14;;;;;;;75.47;35.22;;;;;;;10.92;84.16;100560.47;5034566;28;20125;-69
2022/11/09 00:57:39;;;;;;;64.97;33.85;;;;;;;10.70;82.50;100548.41;5036574;28;20250;-69
2022/11/09 01:00:05;;;;;;;67.57;32.50;;;;;;;10.73;84.67;100558.72;5034605;28;20044;-69
2022/11/09 01:02:31;;;;;;;73.03;33.58;;;;;;;10.59;83.89;100551.22;5036199;28;20025;-69
2022/11/09 01:04:57;;;;;;;78.65;33.95;;;;;;;10.53;85.67;100560.56;5036618;28;20388;-69
2022/11/09 01:07:22;;;;;;;77.00;34.38;;;;;;;10.49;86.39;100548.59;5035702;28;20383;-69
2022/11/09 01:09:47;;;;;;;70.93;33.50;;;;;;;10.50;84.73;100552.06;5036223;28;20204;-69
2022/11/09 01:12:13;;;;;;;69.22;33.67;;;;;;;10.53;85.29;100554.44;5037441;28;20200;-69
2022/11/09 01:14:38;;;;;;;68.88;34.15;;;;;;;10.54;85.20;100554.28;5035409;28;20037;-68
2022/11/09 01:17:04;;;;;;;67.35;32.70;;;;;;;10.38;85.82;100550.53;5037423;28;20105;-69
2022/11/09 01:19:29;;;;;;;69.40;33.13;;;;;;;10.63;85.67;100549.13;5035140;28;20045;-69
2022/11/09 01:21:54;;;;;;;70.65;34.25;;;;;;;10.78;85.07;100553.81;5037428;28;20029;-69
2022/11/09 01:24:20;;;;;;;64.88;33.30;;;;;;;10.77;84.14;100548.66;5034720;28;20038;-69
2022/11/09 01:26:45;;;;;;;70.90;32.58;;;;;;;10.83;81.83;100548.94;5035042;28;20319;-69
2022/11/09 01:29:11;;;;;;;66.15;32.30;;;;;;;10.79;80.73;100544.06;5037156;28;20272;-69
2022/11/09 01:31:36;;;;;;;70.85;33.95;;;;;;;10.84;80.30;100550.59;5020532;28;20264;-69
2022/11/09 01:34:02;;;;;;;66.90;32.25;;;;;;;10.87;81.92;100554.78;5033879;28;20143;-69
2022/11/09 01:36:27;;;;;;;81.68;33.78;;;;;;;10.84;82.07;100544.47;5036291;28;20025;-69
2022/11/09 01:38:52;;;;;;;78.70;35.17;;;;;;;10.79;82.69;100547.53;5036405;28;20109;-68
2022/11/09 01:41:24;;;;;;;86.80;39.42;;;;;;;10.83;83.08;100543.63;5033136;28;20040;-69
2022/11/09 01:44:08;;;;;;;72.18;36.33;;;;;;;10.88;80.53;100537.91;5034079;28;20112;-69
2022/11/09 01:47:05;;;;;;;79.60;38.30;;;;;;;10.84;82.08;100544.47;5036845;28;20203;-69
2022/11/09 01:49:51;;;;;;;71.70;33.65;;;;;;;10.78;81.64;100547.69;5033142;28;20552;-69
2022/11/09 01:52:27;;;;;;;79.28;35.58;;;;;;;10.72;81.55;100551.75;5033544;28;20825;-69
2022/11/09 01:54:59;;;;;;;75.05;35.55;;;;;;;10.73;81.55;100553.41;5035820;28;20180;-68
2022/11/09 01:57:32;;;;;;;80.15;35.28;;;;;;;10.71;81.56;100552.72;5034296;28;20033;-68
2022/11/09 02:00:06;;;;;;;77.50;35.95;;;;;;;10.72;82.00;100548.25;5036287;28;20029;-69
2022/11/09 02:02:32;;;;;;;69.57;34.60;;;;;;;10.76;81.42;100545.19;5034768;28;20078;-69
2022/11/09 02:05:20;;;;;;;77.65;34.60;;;;;;;10.80;81.43;100545.72;5032892;28;20040;-69
2022/11/09 02:07:47;;;;;;;81.93;35.00;;;;;;;10.68;81.53;100538.94;5032960;28;20037;-69
2022/11/09 02:10:23;;;;;;;67.95;32.45;;;;;;;10.68;80.56;100550.38;5015755;28;20030;-69
2022/11/09 02:12:51;;;;;;;64.30;30.92;;;;;;;10.59;77.55;100545.91;5013696;28;20402;-69
2022/11/09 02:15:17;;;;;;;66.57;31.83;;;;;;;10.39;76.29;100555.69;5014462;28;20045;-69
2022/11/09 02:17:44;;;;;;;75.88;35.47;;;;;;;10.28;79.07;100550.53;5015167;28;20018;-69
2022/11/09 02:20:14;;;;;;;77.30;36.20;;;;;;;9.99;84.50;100552.31;5012927;28;20030;-68
2022/11/09 02:22:40;;;;;;;78.80;35.00;;;;;;;10.14;84.61;100535.88;5016165;28;20030;-68
2022/11/09 02:25:08;;;;;;;75.95;35.22;;;;;;;10.31;84.43;100538.84;5017143;28;20208;-69
2022/11/09 02:27:35;;;;;;;84.60;35.53;;;;;;;10.55;84.29;100561.25;5015381;28;20105;-69
2022/11/09 02:30:01;;;;;;;83.82;35.92;;;;;;;10.64;84.24;100553.44;5013669;28;20041;-69
2022/11/09 02:32:28;;;;;;;87.55;36.38;;;;;;;10.49;84.67;100550.41;5016079;28;20033;-69
2022/11/09 02:34:54;;;;;;;84.30;36.72;;;;;;;10.60;84.53;100566.13;5014354;28;20395;-69
2022/11/09 02:37:34;;;;;;;73.43;33.25;;;;;;;10.48;79.95;100569.91;5013699;28;20033;-69
2022/11/09 02:40:02;;;;;;;75.65;33.35;;;;;;;10.40;79.45;100573.28;5014292;28;20037;-68
2022/11/09 02:42:28;;;;;;;81.10;36.25;;;;;;;10.31;77.57;100571.44;5016605;28;20026;-69
2022/11/09 02:44:57;;;;;;;69.20;32.80;;;;;;;10.25;78.31;100577.28;5013856;28;20034;-69
2022/11/09 02:47:23;;;;;;;82.07;32.78;;;;;;;10.10;78.47;100579.47;5014838;28;20072;-69
2022/11/09 02:49:49;;;;;;;76.03;34.17;;;;;;;10.09;77.97;100574.31;5016476;28;20026;-69
2022/11/09 02:52:14;;;;;;;82.60;35.60;;;;;;;10.07;79.22;100563.03;5012941;28;20041;-69
2022/11/09 02:54:40;;;;;;;68.65;33.03;;;;;;;10.22;78.70;100580.22;5013302;28;20034;-69
2022/11/09 02:57:05;;;;;;;72.38;32.30;;;;;;;10.13;76.97;100576.56;5013819;28;20185;-69
2022/11/09 02:59:31;;;;;;;65.15;32.33;;;;;;;10.11;76.50;100580.31;5012378;28;20109;-68
2022/11/09 03:01:56;;;;;;;62.22;31.35;;;;;;;10.07;76.57;100573.63;5016700;28;20028;-68
2022/11/09 03:04:21;;;;;;;76.35;31.08;;;;;;;9.87;77.91;100562.19;5014429;28;20040;-69
2022/11/09 03:06:47;;;;;;;70.63;32.95;;;;;;;9.85;78.75;100580.00;5015875;28;20060;-69
2022/11/09 03:09:12;;;;;;;69.20;33.30;;;;;;;9.83;79.32;100581.97;5034799;28;20227;-69
2022/11/09 03:11:39;;;;;;;59.92;30.13;;;;;;;9.71;80.62;100581.25;5034236;28;20375;-69
2022/11/09 03:14:06;;;;;;;70.20;32.88;;;;;;;9.51;81.63;100572.44;5033115;28;20037;-69
2022/11/09 03:16:31;;;;;;;98.25;41.92;;;;;;;9.48;80.24;100577.97;5034762;28;20260;-68
2022/11/09 03:18:57;;;;;;;90.00;41.85;;;;;;;9.45;79.61;100575.59;5031670;28;20056;-68
2022/11/09 03:21:23;;;;;;;79.45;38.50;;;;;;;9.49;80.77;100577.00;5032405;28;20033;-69
2022/11/09 03:23:49;;;;;;;77.78;33.13;;;;;;;9.53;79.76;100581.06;5036764;28;20033;-67
2022/11/09 03:26:15;;;;;;;37.25;21.10;;;;;;;9.43;81.25;100582.00;5033364;28;20236;-68
2022/11/09 03:28:41;;;;;;;44.80;22.30;;;;;;;9.39;82.20;100577.94;5031703;28;20072;-69
2022/11/09 03:31:07;;;;;;;41.45;21.17;;;;;;;9.38;82.29;100582.41;5032334;28;20358;-68
2022/11/09 03:33:33;;;;;;;44.28;23.30;;;;;;;9.32;82.61;100582.91;5035630;28;20036;-69
2022/11/09 03:35:58;;;;;;;35.75;19.85;;;;;;;9.28;83.07;100576.22;5016623;28;20025;-68
2022/11/09 03:38:24;;;;;;;55.63;28.77;;;;;;;9.27;83.39;100577.19;5034410;28;20389;-69
2022/11/09 03:40:50;;;;;;;62.05;32.33;;;;;;;9.31;82.64;100585.69;5032260;28;20449;-69
2022/11/09 03:43:15;;;;;;;51.45;28.15;;;;;;;9.37;81.67;100585.19;5034282;28;20357;-69
2022/11/09 03:45:40;;;;;;;56.28;28.35;;;;;;;9.43;81.23;100585.47;5032240;28;20079;-68
2022/11/09 03:48:06;;;;;;;46.20;24.38;;;;;;;9.44;82.06;100587.16;5033902;28;20028;-69
2022/11/09 03:50:33;;;;;;;52.83;28.10;;;;;;;9.44;81.83;100584.50;5036877;28;20087;-68
2022/11/09 03:53:00;;;;;;;64.82;32.20;;;;;;;9.46;80.78;100582.56;5033272;28;20044;-69
2022/11/09 03:55:26;;;;;;;50.10;27.25;;;;;;;9.42;80.81;100580.31;5032335;28;20072;-68
2022/11/09 03:57:52;;;;;;;33.28;17.08;;;;;;;9.46;82.55;100584.38;5033015;28;20490;-68
2022/11/09 04:00:19;;;;;;;38.97;17.60;;;;;;;9.50;83.89;100586.63;5033833;28;20045;-69
2022/11/09 04:02:45;;;;;;;59.13;29.42;;;;;;;9.57;83.69;100585.09;5035360;28;20042;-68
2022/11/09 04:05:11;;;;;;;71.20;34.05;;;;;;;9.54;83.61;100588.03;5035974;28;20211;-68
2022/11/09 04:07:37;;;;;;;71.70;32.00;;;;;;;9.47;84.54;100575.47;5034820;28;20029;-68
2022/11/09 04:10:04;;;;;;;100.43;42.15;;;;;;;9.59;83.38;100588.44;5037522;28;20370;-69
2022/11/09 04:12:30;;;;;;;68.15;28.35;;;;;;;9.65;83.33;100591.53;5040307;28;20211;-69
2022/11/09 04:14:55;;;;;;;61.13;29.13;;;;;;;9.58;82.52;100584.13;5037520;28;20049;-69
2022/11/09 04:17:21;;;;;;;64.85;29.17;;;;;;;9.47;83.00;100583.41;5039697;28;20106;-69
2022/11/09 04:19:46;;;;;;;62.05;29.10;;;;;;;9.45;84.42;100580.91;5037082;28;20390;-68
2022/11/09 04:22:11;;;;;;;64.13;30.08;;;;;;;9.51;83.79;100583.00;5037777;28;20180;-68
2022/11/09 04:24:37;;;;;;;60.10;29.75;;;;;;;9.43;83.66;100566.13;5040485;28;20038;-68
2022/11/09 04:27:02;;;;;;;64.82;30.55;;;;;;;9.61;84.33;100583.03;5038832;28;20037;-69
2022/11/09 04:29:28;;;;;;;71.75;32.53;;;;;;;9.75;83.66;100581.81;5038946;28;20234;-68
2022/11/09 04:31:53;;;;;;;64.45;29.95;;;;;;;9.74;82.71;100572.19;5038935;28;20101;-68
2022/11/09 04:34:19;;;;;;;69.07;33.25;;;;;;;9.77;83.18;100571.94;5035921;28;20037;-69
2022/11/09 04:36:44;;;;;;;67.95;31.05;;;;;;;9.84;83.41;100583.63;5037083;28;20029;-69
2022/11/09 04:39:10;;;;;;;75.43;33.03;;;;;;;9.89;84.25;100578.75;5036293;28;20445;-69
2022/11/09 05:08:47;;;;;;;52.10;30.67;;;;;;;10.14;82.95;100591.47;5158981;27;20653;-68
2022/11/09 05:11:13;;;;;;;43.65;26.27;;;;;;;10.16;82.72;100602.75;5139803;27;20038;-68
2022/11/09 05:13:38;;;;;;;41.92;25.58;;;;;;;10.14;82.72;100599.41;5139313;27;20023;-68
2022/11/09 05:16:04;;;;;;;48.08;26.63;;;;;;;10.15;83.07;100605.53;5139491;27;20092;-68
2022/11/09 05:18:29;;;;;;;44.28;24.92;;;;;;;10.20;83.22;100609.47;5121055;27;20032;-70
2022/11/09 05:20:58;;;;;;;64.18;34.00;;;;;;;10.20;83.56;100612.09;5139235;27;20031;-70
2022/11/09 05:26:08;;;;;;;53.97;29.70;;;;;;;10.18;83.67;100606.09;5139276;27;20041;-68
2022/11/09 05:28:34;;;;;;;55.75;29.08;;;;;;;10.16;84.49;100610.69;5138575;27;20044;-68
2022/11/09 05:30:59;;;;;;;50.13;28.38;;;;;;;10.08;84.58;100609.69;5120817;27;20034;-68
2022/11/09 05:33:25;;;;;;;51.67;30.35;;;;;;;9.95;84.50;100617.91;5120998;27;20035;-70
2022/11/09 05:35:53;;;;;;;53.38;32.50;;;;;;;9.68;84.13;100596.53;5139529;27;20149;-70
2022/11/09 05:38:18;;;;;;;62.13;32.90;;;;;;;9.71;84.90;100615.63;5120532;27;20023;-70
2022/11/09 05:40:47;;;;;;;60.67;33.55;;;;;;;9.63;85.26;100610.16;5120936;27;20026;-70
2022/11/09 05:43:12;;;;;;;62.72;35.03;;;;;;;9.59;86.06;100617.53;5138961;27;20038;-70
2022/11/09 05:45:38;;;;;;;67.63;34.65;;;;;;;9.74;86.10;100623.28;5139990;27;20125;-70
2022/11/09 05:48:04;;;;;;;61.92;33.75;;;;;;;9.82;86.33;100627.91;5140123;27;20106;-68
2022/11/09 05:50:29;;;;;;;64.65;35.17;;;;;;;9.90;87.16;100620.13;5138768;27;20328;-68
2022/11/09 05:52:58;;;;;;;70.78;36.10;;;;;;;10.07;86.69;100632.69;5137105;28;20039;-68
2022/11/09 05:55:23;;;;;;;64.63;35.38;;;;;;;10.11;87.03;100638.53;5118182;28;20021;-68
2022/11/09 05:57:49;;;;;;;66.93;35.05;;;;;;;10.18;87.39;100626.44;5135474;28;20032;-68
2022/11/09 06:00:15;;;;;;;68.82;34.25;;;;;;;10.33;87.01;100640.13;5136516;28;20039;-68
2022/11/09 06:02:40;;;;;;;72.97;38.45;;;;;;;10.46;86.33;100644.19;5135701;28;20035;-68
2022/11/09 06:05:06;;;;;;;79.75;43.50;;;;;;;10.55;86.34;100647.81;5136967;28;20031;-68
2022/11/09 06:07:32;;;;;;;87.35;49.03;;;;;;;10.65;86.29;100643.34;5135043;28;20039;-68
2022/11/09 06:09:57;;;;;;;96.43;51.65;;;;;;;10.66;86.11;100634.44;5122952;28;20042;-68
2022/11/09 06:12:23;;;;;;;84.80;44.45;;;;;;;10.79;86.45;100652.69;5122222;28;20030;-68
2022/11/09 06:14:48;;;;;;;84.72;45.83;;;;;;;10.84;85.58;100642.50;5103308;28;20089;-68
2022/11/09 06:17:14;;;;;;;80.88;45.42;;;;;;;10.97;85.99;100653.63;5121703;28;20253;-68
2022/11/09 06:19:40;;;;;;;81.10;43.60;;;;;;;11.10;85.11;100670.06;5122393;28;20204;-68
2022/11/09 06:22:05;;;;;;;83.47;43.15;;;;;;;11.02;86.18;100653.19;5122793;28;20042;-68
2022/11/09 06:24:31;;;;;;;86.18;44.22;;;;;;;11.17;85.46;100665.03;5121475;28;20039;-68
2022/11/09 06:26:56;;;;;;;95.22;43.20;;;;;;;11.19;85.58;100661.25;5121962;28;20204;-68
2022/11/09 06:29:22;;;;;;;85.05;40.55;;;;;;;11.17;86.43;100651.75;5121828;28;20070;-68
2022/11/09 06:31:47;;;;;;;103.05;43.15;;;;;;;11.33;86.28;100659.13;5103837;28;20077;-68
2022/11/09 06:34:14;;;;;;;91.95;43.35;;;;;;;11.37;85.02;100660.50;5121267;28;20099;-68
2022/11/09 06:36:39;;;;;;;79.72;43.38;;;;;;;11.45;85.14;100663.28;5122226;28;20023;-68
2022/11/09 06:39:07;;;;;;;95.03;45.65;;;;;;;11.48;85.02;100661.19;5121190;28;20054;-69
2022/11/09 06:41:33;;;;;;;110.80;44.58;;;;;;;11.55;84.62;100656.13;5121214;28;20043;-67
2022/11/09 06:43:59;;;;;;;97.68;49.25;;;;;;;11.63;84.19;100650.09;5121718;28;20024;-68
2022/11/09 06:46:24;;;;;;;90.32;49.58;;;;;;;11.76;83.91;100656.72;5121775;28;20315;-68
2022/11/09 06:48:50;;;;;;;91.40;45.38;;;;;;;11.62;84.33;100643.94;5121553;28;20277;-68
2022/11/09 06:51:15;;;;;;;94.55;45.28;;;;;;;11.73;84.87;100651.72;5121585;28;20059;-68
2022/11/09 06:53:41;;;;;;;105.85;46.22;;;;;;;11.66;84.73;100657.75;5120774;28;20304;-68
2022/11/09 06:56:07;;;;;;;107.47;44.55;;;;;;;11.68;84.59;100661.09;5122127;28;20044;-68
2022/11/09 06:58:32;;;;;;;100.60;45.33;;;;;;;11.59;85.22;100646.06;5119923;28;20242;-68
2022/11/09 07:00:58;;;;;;;86.88;43.30;;;;;;;11.70;85.14;100652.00;5121762;28;20031;-68
2022/11/09 07:03:24;;;;;;;78.75;42.67;;;;;;;11.88;84.32;100652.09;5120399;28;20313;-68
2022/11/09 07:05:51;;;;;;;93.57;43.75;;;;;;;11.89;84.41;100648.44;5103524;28;20031;-68
2022/11/09 07:08:18;;;;;;;86.13;43.83;;;;;;;12.20;83.31;100654.25;5120259;28;20036;-68
2022/11/09 07:10:44;;;;;;;98.85;46.28;;;;;;;12.22;84.18;100656.75;5121673;28;20031;-68
2022/11/09 07:13:10;;;;;;;94.25;45.40;;;;;;;12.31;83.32;100653.22;5120183;28;20091;-68
2022/11/09 07:15:37;;;;;;;102.32;46.15;;;;;;;12.26;83.62;100637.72;5121006;28;20317;-73
2022/11/09 07:18:05;;;;;;;86.32;45.35;;;;;;;12.32;83.40;100646.91;5121889;28;20230;-69
2022/11/09 07:20:31;;;;;;;96.35;44.72;;;;;;;12.37;83.58;100649.94;5119755;28;20027;-69
2022/11/09 07:22:57;;;;;;;95.30;44.78;;;;;;;12.32;84.04;100634.47;5102872;28;20034;-71
2022/11/09 07:25:23;;;;;;;95.28;47.72;;;;;;;12.60;83.61;100645.88;5120300;28;20035;-71
2022/11/09 07:27:49;;;;;;;92.95;47.92;;;;;;;12.79;83.24;100652.84;5119871;28;20031;-69
2022/11/09 07:30:15;;;;;;;98.90;48.15;;;;;;;12.88;82.45;100648.41;5102837;28;20049;-69
2022/11/09 07:32:41;;;;;;;98.40;51.22;;;;;;;12.86;82.77;100645.06;5120411;28;20052;-71
2022/11/09 07:35:08;;;;;;;105.88;50.00;;;;;;;12.75;83.81;100639.03;5121064;28;20095;-71
2022/11/09 07:37:34;;;;;;;98.00;50.50;;;;;;;12.79;84.29;100642.19;5120428;28;20043;-71
2022/11/09 07:40:00;;;;;;;98.38;49.65;;;;;;;12.77;84.14;100633.53;5120517;28;20065;-71
2022/11/09 07:42:25;;;;;;;96.82;50.20;;;;;;;12.50;85.84;100642.47;5120787;28;20035;-71
2022/11/09 07:44:51;;;;;;;99.60;49.50;;;;;;;12.53;85.50;100636.84;5119837;28;20107;-71
2022/11/09 07:47:18;;;;;;;96.38;47.80;;;;;;;12.54;86.12;100646.47;5120133;28;20202;-71
2022/11/09 07:49:44;;;;;;;103.15;49.25;;;;;;;12.56;86.21;100639.19;5120106;28;20023;-71
2022/11/09 07:52:10;;;;;;;100.63;49.90;;;;;;;12.90;85.18;100649.94;5119469;28;20333;-72
2022/11/09 07:54:36;;;;;;;95.75;49.22;;;;;;;13.02;84.27;100645.19;5120861;28;20035;-71
2022/11/09 07:57:02;;;;;;;102.47;52.30;;;;;;;13.05;84.81;100656.34;5119029;28;20034;-71
2022/11/09 07:59:27;;;;;;;105.90;50.72;;;;;;;13.28;83.61;100650.53;5120431;28;20099;-71
2022/11/09 08:01:53;;;;;;;110.10;51.00;;;;;;;13.14;83.67;100659.06;5120185;28;20051;-71
2022/11/09 08:04:18;;;;;;;103.85;50.53;;;;;;;13.16;84.18;100649.09;5119656;28;20095;-69
2022/11/09 08:06:44;;;;;;;108.53;50.10;;;;;;;13.45;82.81;100652.28;5119964;28;20103;-71
2022/11/09 08:09:09;;;;;;;105.10;53.22;;;;;;;13.58;82.52;100651.88;5119438;28;20027;-69
2022/11/09 08:11:35;;;;;;;108.03;54.40;;;;;;;13.66;82.13;100652.75;5120306;28;20319;-69
2022/11/09 08:14:00;;;;;;;116.85;55.13;;;;;;;13.74;82.34;100655.47;5119741;28;20261;-69
2022/11/09 08:16:26;;;;;;;108.20;51.40;;;;;;;13.54;82.83;100654.03;5119798;28;20046;-69
2022/11/09 08:18:51;;;;;;;110.72;52.08;;;;;;;13.52;82.75;100647.19;5120121;28;20095;-69
2022/11/09 08:21:17;;;;;;;102.78;55.05;;;;;;;13.65;82.23;100652.91;5118984;28;20047;-69
2022/11/09 08:23:44;;;;;;;105.28;53.63;;;;;;;13.73;81.67;100636.97;5119156;28;20069;-69
2022/11/09 08:26:10;;;;;;;110.80;57.45;;;;;;;13.87;81.76;100652.34;5119460;28;20372;-69
2022/11/09 08:28:36;;;;;;;104.57;52.33;;;;;;;13.81;82.22;100652.16;5115078;28;20182;-69
2022/11/09 08:31:04;;;;;;;114.90;56.95;;;;;;;13.80;81.88;100645.16;5119800;28;20023;-70
2022/11/09 08:33:34;;;;;;;112.85;54.25;;;;;;;14.05;81.31;100642.41;5119453;28;20040;-70
2022/11/09 08:36:00;;;;;;;102.57;53.95;;;;;;;14.18;80.90;100652.59;5119077;28;20101;-69
2022/11/09 08:38:25;;;;;;;100.72;54.15;;;;;;;14.29;80.73;100643.47;5119746;28;20030;-69
2022/11/09 08:41:00;;;;;;;107.28;54.00;;;;;;;14.22;80.93;100653.94;5118998;28;20473;-70
2022/11/09 08:43:25;;;;;;;124.85;56.67;;;;;;;14.30;80.65;100642.47;5118668;28;20031;-69
2022/11/09 08:45:51;;;;;;;119.28;58.45;;;;;;;14.33;80.62;100648.28;5120053;28;20209;-69
2022/11/09 08:48:16;;;;;;;107.90;55.17;;;;;;;14.46;80.55;100637.19;5118340;28;20042;-69
2022/11/09 08:50:42;;;;;;;114.70;55.53;;;;;;;14.62;79.62;100636.38;5118821;28;20031;-69
2022/11/09 08:53:08;;;;;;;101.85;52.30;;;;;;;14.73;79.25;100648.56;5119831;28;20032;-69
2022/11/09 08:55:34;;;;;;;102.03;50.97;;;;;;;14.64;79.46;100634.38;5119316;28;20316;-69
2022/11/09 08:58:01;;;;;;;96.35;50.45;;;;;;;14.56;79.87;100645.00;5118237;28;20027;-69
2022/11/09 09:00:27;;;;;;;91.95;49.60;;;;;;;14.65;79.93;100638.72;5120034;28;20027;-69
2022/11/09 09:02:53;;;;;;;93.38;49.33;;;;;;;14.95;78.83;100647.88;5119214;28;20059;-69
2022/11/09 09:05:19;;;;;;;90.53;46.17;;;;;;;15.07;77.76;100645.69;5119043;28;20020;-70
2022/11/09 09:07:44;;;;;;;86.93;45.80;;;;;;;15.14;77.56;100634.16;5118995;28;20093;-69
2022/11/09 09:10:11;;;;;;;94.13;44.72;;;;;;;15.39;76.38;100642.13;5118763;28;20225;-69
2022/11/09 09:12:36;;;;;;;84.10;45.78;;;;;;;15.23;77.44;100640.31;5119332;28;20039;-69
2022/11/09 09:15:02;;;;;;;83.65;43.58;;;;;;;15.11;77.81;100645.19;5099605;28;20035;-69
2022/11/09 09:17:28;;;;;;;80.20;40.63;;;;;;;14.98;77.78;100640.38;5118984;28;20134;-69
2022/11/09 09:19:53;;;;;;;88.35;43.05;;;;;;;15.06;77.47;100638.69;5119430;28;20028;-69
2022/11/09 09:22:19;;;;;;;83.93;42.30;;;;;;;15.16;77.51;100634.84;5120748;28;20024;-69
2022/11/09 09:24:45;;;;;;;81.43;42.92;;;;;;;15.26;76.67;100638.13;5119216;28;20066;-69
2022/11/09 09:27:10;;;;;;;95.20;47.88;;;;;;;15.05;78.10;100637.03;5099898;28;20042;-69
2022/11/09 09:29:36;;;;;;;85.15;44.40;;;;;;;15.24;77.64;100629.47;5116146;28;20028;-69
2022/11/09 09:32:02;;;;;;;93.30;48.97;;;;;;;15.38;77.17;100624.44;5119524;28;20066;-69
2022/11/09 09:34:27;;;;;;;99.15;49.83;;;;;;;15.53;76.35;100620.03;5118585;28;20042;-69
2022/11/09 09:36:53;;;;;;;83.32;44.30;;;;;;;15.70;74.97;100616.38;5118728;28;20027;-69
2022/11/09 09:39:18;;;;;;;89.53;44.65;;;;;;;15.70;74.75;100611.03;5118470;28;20309;-69
2022/11/09 09:42:01;;;;;;;78.93;40.97;;;;;;;15.51;76.09;100600.69;5119329;28;20336;-69
2022/11/09 09:44:32;;;;;;;80.53;40.90;;;;;;;15.71;75.65;100602.00;5121743;28;20336;-69
2022/11/09 09:47:05;;;;;;;84.63;41.45;;;;;;;15.49;76.21;100597.38;5123228;28;20042;-70
2022/11/09 09:49:35;;;;;;;71.38;37.50;;;;;;;15.53;75.21;100596.03;5122649;28;20024;-69
2022/11/09 09:52:11;;;;;;;75.93;40.85;;;;;;;15.67;74.68;100586.50;5121950;28;20099;-70
2022/11/09 09:54:47;;;;;;;70.07;38.33;;;;;;;15.86;74.08;100591.41;5123253;28;20343;-69
2022/11/09 09:57:18;;;;;;;62.38;36.60;;;;;;;16.04;72.21;100588.47;5122614;28;20046;-69
2022/11/09 09:59:48;;;;;;;69.28;38.13;;;;;;;16.01;73.96;100580.81;5121991;28;20015;-69
2022/11/09 10:02:29;;;;;;;74.40;38.70;;;;;;;15.89;72.65;100583.88;5122945;28;20066;-69
2022/11/09 10:04:58;;;;;;;74.95;38.42;;;;;;;15.98;73.60;100579.31;5122628;28;20357;-69
2022/11/09 10:07:35;;;;;;;69.10;36.88;;;;;;;16.22;71.89;100572.97;5122053;28;20054;-69
2022/11/09 10:13:01;;;;;;;73.40;38.30;;;;;;;16.07;71.96;100570.25;5099916;28;20106;-67
2022/11/09 10:16:08;;;;;;;68.60;39.05;;;;;;;15.94;73.03;100567.31;5105655;28;20043;-67
2022/11/09 10:18:39;;;;;;;66.75;36.58;;;;;;;16.04;72.58;100565.25;5077314;28;20032;-67
2022/11/09 10:21:33;;;;;;;71.32;36.80;;;;;;;16.09;72.29;100570.06;5107248;28;20066;-67
2022/11/09 10:24:33;;;;;;;72.00;37.70;;;;;;;16.18;71.85;100567.16;5123842;28;20341;-67
2022/11/09 10:27:00;;;;;;;69.68;36.72;;;;;;;16.20;71.66;100554.44;5120263;28;20036;-66
2022/11/09 10:29:40;;;;;;;63.83;35.55;;;;;;;16.26;70.90;100563.59;5107116;28;20090;-66
2022/11/09 10:32:13;;;;;;;55.50;33.35;;;;;;;16.36;71.01;100560.69;5106185;28;20036;-67
2022/11/09 10:35:02;;;;;;;66.53;34.93;;;;;;;16.49;70.71;100560.91;5105902;28;20125;-67
2022/11/09 10:37:37;;;;;;;69.95;37.92;;;;;;;16.18;71.65;100548.44;5107667;28;20461;-67
2022/11/09 10:40:15;;;;;;;71.07;38.13;;;;;;;16.21;71.71;100545.41;5107302;28;20024;-67
2022/11/09 10:42:57;;;;;;;75.68;40.38;;;;;;;16.45;71.30;100540.88;5105565;28;20032;-67
2022/11/09 10:45:43;;;;;;;63.50;32.28;;;;;;;16.64;69.83;100544.88;5105876;28;20095;-67
2022/11/09 10:48:10;;;;;;;60.70;32.85;;;;;;;16.54;69.96;100537.94;5106329;28;20337;-67
2022/11/09 10:50:51;;;;;;;59.05;31.10;;;;;;;16.70;69.00;100536.19;5105475;28;20028;-67
2022/11/09 10:53:22;;;;;;;53.63;31.02;;;;;;;16.56;70.13;100543.13;5105370;28;20095;-67
2022/11/09 10:56:14;;;;;;;58.72;31.60;;;;;;;16.59;70.11;100521.38;5104421;28;20078;-67
2022/11/09 10:58:47;;;;;;;59.90;29.80;;;;;;;16.57;71.12;100528.75;5103984;28;20036;-67
2022/11/09 11:01:22;;;;;;;55.10;30.58;;;;;;;16.60;70.47;100523.84;5105466;28;20047;-66
2022/11/09 11:03:53;;;;;;;56.75;30.27;;;;;;;16.59;69.23;100522.19;5104799;28;20039;-66
2022/11/09 11:06:22;;;;;;;54.83;30.08;;;;;;;16.71;68.98;100517.28;5106940;28;20091;-67
2022/11/09 11:08:48;;;;;;;48.25;28.50;;;;;;;16.90;68.69;100521.28;5105566;28;20107;-67
2022/11/09 11:11:24;;;;;;;54.00;29.40;;;;;;;16.66;68.84;100503.66;5109368;28;20039;-67
2022/11/09 11:13:52;;;;;;;52.50;27.88;;;;;;;16.70;68.84;100518.31;5106839;28;20099;-67
2022/11/09 11:16:49;;;;;;;62.65;28.00;;;;;;;16.36;70.28;100512.56;5105920;28;20049;-67
2022/11/09 11:19:34;;;;;;;50.92;28.15;;;;;;;16.38;70.37;100505.19;5089460;28;20035;-67
2022/11/09 11:22:13;;;;;;;48.25;27.90;;;;;;;16.64;69.55;100497.59;5108582;28;20040;-67
2022/11/09 11:24:52;;;;;;;47.80;27.02;;;;;;;16.74;68.93;100495.53;5105923;28;20328;-67
2022/11/09 11:27:32;;;;;;;58.10;28.65;;;;;;;16.66;68.83;100489.44;5103157;28;20684;-67
2022/11/09 11:30:33;;;;;;;45.83;26.42;;;;;;;16.71;68.97;100487.88;5102007;28;20317;-67
2022/11/09 11:32:59;;;;;;;46.10;24.80;;;;;;;16.82;68.37;100486.59;5091435;28;20063;-67
2022/11/09 11:36:00;;;;;;;51.75;26.42;;;;;;;16.90;68.39;100495.34;5103344;28;20124;-67
2022/11/09 11:38:29;;;;;;;42.13;24.70;;;;;;;16.89;68.30;100476.81;5105375;28;20243;-67
2022/11/09 11:41:26;;;;;;;45.22;25.20;;;;;;;16.76;68.54;100484.66;5105370;28;20036;-67
2022/11/09 11:43:52;;;;;;;43.30;23.83;;;;;;;16.90;68.62;100475.78;5092639;28;20198;-66
2022/11/09 11:46:36;;;;;;;41.60;24.27;;;;;;;16.82;68.47;100479.41;5106063;28;20058;-66
2022/11/09 11:49:29;;;;;;;45.35;24.27;;;;;;;17.03;67.55;100470.63;5104007;28;20036;-67